createdAt,value
2018-12-20T00:00:13.479Z,16.10
2018-12-20T00:02:46.194Z,18.90
2018-12-20T00:05:18.802Z,16.37
2018-12-20T00:07:51.640Z,17.67
2018-12-20T00:10:24.254Z,19.17
2018-12-20T00:12:56.841Z,18.10
2018-12-20T00:15:29.448Z,18.27
2018-12-20T00:18:02.010Z,19.43
2018-12-20T00:20:34.591Z,20.20
2018-12-20T00:23:07.095Z,21.57
2018-12-20T00:25:39.698Z,19.50
2018-12-20T00:28:12.093Z,19.00
2018-12-20T00:30:45.145Z,20.53
2018-12-20T00:33:17.870Z,20.07
2018-12-20T00:35:50.443Z,22.00
2018-12-20T00:38:23.255Z,18.70
2018-12-20T00:40:55.795Z,22.83
2018-12-20T00:43:28.447Z,22.53
2018-12-20T00:46:01.038Z,22.33
2018-12-20T00:48:33.450Z,22.27
2018-12-20T00:51:06.131Z,22.63
2018-12-20T00:53:38.532Z,23.03
2018-12-20T00:56:10.835Z,21.73
2018-12-20T00:58:43.236Z,20.80
2018-12-20T01:01:16.436Z,25.47
2018-12-20T01:03:49.176Z,24.13
2018-12-20T01:06:21.802Z,22.33
2018-12-20T01:08:54.288Z,23.43
2018-12-20T01:11:26.855Z,24.53
2018-12-20T01:13:59.379Z,24.77
2018-12-20T01:16:31.823Z,25.13
2018-12-20T01:19:04.295Z,25.37
2018-12-20T01:21:36.943Z,22.67
2018-12-20T01:24:09.472Z,24.83
2018-12-20T01:26:42.234Z,24.53
2018-12-20T01:29:15.658Z,24.33
2018-12-20T01:31:48.375Z,26.13
2018-12-20T01:34:21.400Z,24.57
2018-12-20T01:36:53.882Z,23.23
2018-12-20T01:39:26.593Z,24.23
2018-12-20T01:41:59.083Z,24.77
2018-12-20T01:44:31.789Z,24.13
2018-12-20T01:47:04.453Z,25.63
2018-12-20T01:49:36.838Z,24.10
2018-12-20T01:52:09.451Z,24.87
2018-12-20T01:54:41.996Z,25.63
2018-12-20T01:57:14.574Z,25.77
2018-12-20T01:59:47.318Z,23.53
2018-12-20T02:02:20.612Z,25.13
2018-12-20T02:04:53.578Z,25.07
2018-12-20T02:07:26.251Z,26.87
2018-12-20T02:09:59.155Z,25.63
2018-12-20T02:12:32.016Z,26.80
2018-12-20T02:15:05.570Z,25.60
2018-12-20T02:17:45.099Z,26.57
2018-12-20T02:20:17.629Z,27.37
2018-12-20T02:22:50.321Z,26.90
2018-12-20T02:25:23.049Z,28.23
2018-12-20T02:27:55.622Z,27.17
2018-12-20T02:30:28.595Z,25.27
2018-12-20T02:33:01.074Z,24.90
2018-12-20T02:35:33.716Z,24.47
2018-12-20T02:38:06.451Z,23.93
2018-12-20T02:40:39.158Z,24.43
2018-12-20T02:43:11.585Z,25.33
2018-12-20T02:45:44.356Z,23.03
2018-12-20T02:48:17.005Z,24.23
2018-12-20T02:50:49.732Z,20.93
2018-12-20T02:53:22.426Z,23.47
2018-12-20T02:55:55.079Z,21.73
2018-12-20T02:58:27.723Z,22.23
2018-12-20T03:01:00.490Z,25.40
2018-12-20T03:03:32.999Z,21.60
2018-12-20T03:06:05.404Z,22.93
2018-12-20T03:08:38.287Z,23.60
2018-12-20T03:11:10.763Z,24.93
2018-12-20T03:13:43.593Z,25.67
2018-12-20T03:16:16.394Z,25.20
2018-12-20T03:18:49.019Z,25.13
2018-12-20T03:21:21.531Z,24.37
2018-12-20T03:23:54.166Z,23.87
2018-12-20T03:26:27.146Z,25.73
2018-12-20T03:28:59.889Z,23.13
2018-12-20T03:31:32.776Z,24.73
2018-12-20T03:34:05.503Z,23.03
2018-12-20T03:36:37.948Z,25.43
2018-12-20T03:39:10.722Z,25.63
2018-12-20T03:41:43.284Z,23.37
2018-12-20T03:44:15.848Z,23.20
2018-12-20T03:46:48.411Z,23.27
2018-12-20T03:49:21.118Z,20.67
2018-12-20T03:51:53.718Z,23.87
2018-12-20T03:54:26.371Z,21.93
2018-12-20T03:56:59.197Z,21.43
2018-12-20T03:59:31.811Z,21.00
2018-12-20T04:02:04.429Z,22.70
2018-12-20T04:04:37.137Z,21.57
2018-12-20T04:07:09.914Z,21.93
2018-12-20T04:09:42.351Z,20.90
2018-12-20T04:12:14.845Z,19.40
2018-12-20T04:14:47.441Z,19.93
2018-12-20T04:17:19.855Z,21.93
2018-12-20T04:19:52.625Z,21.57
2018-12-20T04:22:25.167Z,19.83
2018-12-20T04:24:57.615Z,21.87
2018-12-20T04:27:30.100Z,21.83
2018-12-20T04:30:04.139Z,18.27
2018-12-20T04:32:36.785Z,21.07
2018-12-20T04:35:09.486Z,19.10
2018-12-20T04:37:42.050Z,19.20
2018-12-20T04:40:14.511Z,19.30
2018-12-20T04:42:47.293Z,20.10
2018-12-20T04:45:19.838Z,19.83
2018-12-20T04:47:52.467Z,19.07
2018-12-20T04:50:24.989Z,18.57
2018-12-20T04:52:57.742Z,19.13
2018-12-20T04:55:30.501Z,17.87
2018-12-20T04:58:03.237Z,18.90
2018-12-20T05:00:35.745Z,17.40
2018-12-20T05:03:08.273Z,20.10
2018-12-20T05:05:40.922Z,16.97
2018-12-20T05:08:13.467Z,20.23
2018-12-20T05:10:46.167Z,17.43
2018-12-20T05:13:19.417Z,17.87
2018-12-20T05:15:56.026Z,18.80
2018-12-20T05:18:26.812Z,19.27
2018-12-20T05:20:59.865Z,19.00
2018-12-20T05:23:32.514Z,18.60
2018-12-20T05:26:12.841Z,21.10
2018-12-20T05:28:45.414Z,20.27
2018-12-20T05:31:18.031Z,18.17
2018-12-20T05:33:51.148Z,18.20
2018-12-20T05:36:24.390Z,20.07
2018-12-20T05:38:57.224Z,18.67
2018-12-20T05:41:29.995Z,17.93
2018-12-20T05:44:03.233Z,18.90
2018-12-20T05:46:35.730Z,19.17
2018-12-20T05:49:08.366Z,18.20
2018-12-20T05:51:40.924Z,21.07
2018-12-20T05:54:13.660Z,18.83
2018-12-20T05:56:46.223Z,18.47
2018-12-20T05:59:19.019Z,18.80
2018-12-20T06:01:51.480Z,17.83
2018-12-20T06:04:24.222Z,17.67
2018-12-20T06:06:56.726Z,17.83
2018-12-20T06:09:29.630Z,16.53
2018-12-20T06:12:02.335Z,19.47
2018-12-20T06:14:34.894Z,17.03
2018-12-20T06:17:07.465Z,17.43
2018-12-20T06:19:40.442Z,18.90
2018-12-20T06:22:13.021Z,18.67
2018-12-20T06:24:45.421Z,15.83
2018-12-20T06:27:17.941Z,16.17
2018-12-20T06:29:50.486Z,15.10
2018-12-20T06:32:22.809Z,18.30
2018-12-20T06:34:55.152Z,15.37
2018-12-20T06:37:28.035Z,14.43
2018-12-20T06:40:00.790Z,15.93
2018-12-20T06:42:33.392Z,15.67
2018-12-20T06:45:06.222Z,14.57
2018-12-20T06:47:38.572Z,15.37
2018-12-20T06:50:11.044Z,15.17
2018-12-20T06:52:43.533Z,14.43
2018-12-20T06:55:16.014Z,16.10
2018-12-20T06:57:48.385Z,16.87
2018-12-20T07:00:20.883Z,14.87
2018-12-20T07:02:53.342Z,14.53
2018-12-20T07:05:25.810Z,16.70
2018-12-20T07:07:58.221Z,14.63
2018-12-20T07:10:30.672Z,16.87
2018-12-20T07:13:03.156Z,13.67
2018-12-20T07:15:36.107Z,15.77
2018-12-20T07:18:08.561Z,15.17
2018-12-20T07:20:40.941Z,15.53
2018-12-20T07:23:13.400Z,14.83
2018-12-20T07:25:46.028Z,15.23
2018-12-20T07:28:18.539Z,15.17
2018-12-20T07:30:50.888Z,15.60
2018-12-20T07:33:23.315Z,17.03
2018-12-20T07:35:55.722Z,13.77
2018-12-20T07:38:28.277Z,16.63
2018-12-20T07:41:00.850Z,13.93
2018-12-20T07:43:33.448Z,12.93
2018-12-20T07:46:05.991Z,14.07
2018-12-20T07:48:38.720Z,13.57
2018-12-20T07:51:11.295Z,14.53
2018-12-20T07:53:43.974Z,15.73
2018-12-20T07:56:16.297Z,15.23
2018-12-20T07:58:48.857Z,14.73
2018-12-20T08:01:21.266Z,14.17
2018-12-20T08:03:53.783Z,15.43
2018-12-20T08:06:26.315Z,14.20
2018-12-20T08:08:58.929Z,13.50
2018-12-20T08:11:31.320Z,13.63
2018-12-20T08:14:03.765Z,16.40
2018-12-20T08:16:36.225Z,16.33
2018-12-20T08:19:08.696Z,15.87
2018-12-20T08:21:41.322Z,14.43
2018-12-20T08:24:13.710Z,12.53
2018-12-20T08:26:46.102Z,14.90
2018-12-20T08:29:18.551Z,16.43
2018-12-20T08:31:51.154Z,14.73
2018-12-20T08:34:23.601Z,14.57
2018-12-20T08:36:55.992Z,15.57
2018-12-20T08:39:28.378Z,15.60
2018-12-20T08:42:00.788Z,14.80
2018-12-20T08:44:33.362Z,15.23
2018-12-20T08:47:05.887Z,14.77
2018-12-20T08:49:38.335Z,15.60
2018-12-20T08:52:10.723Z,19.13
2018-12-20T08:54:43.120Z,15.80
2018-12-20T08:57:15.587Z,15.87
2018-12-20T08:59:48.202Z,17.23
2018-12-20T09:02:21.848Z,16.63
2018-12-20T09:04:54.261Z,15.47
2018-12-20T09:07:26.662Z,13.83
2018-12-20T09:09:59.146Z,15.00
2018-12-20T09:12:31.457Z,16.70
2018-12-20T09:15:04.464Z,15.30
2018-12-20T09:17:36.995Z,16.53
2018-12-20T09:20:09.654Z,12.70
2018-12-20T09:22:42.168Z,14.80
2018-12-20T09:25:14.720Z,12.40
2018-12-20T09:27:47.252Z,12.63
2018-12-20T09:30:19.706Z,10.97
2018-12-20T09:32:52.811Z,13.27
2018-12-20T09:35:25.297Z,13.00
2018-12-20T09:37:57.794Z,10.67
2018-12-20T09:40:30.142Z,11.27
2018-12-20T09:43:02.505Z,8.87
2018-12-20T09:45:34.965Z,8.70
2018-12-20T09:48:14.462Z,8.83
2018-12-20T09:50:46.748Z,8.40
2018-12-20T09:53:19.226Z,9.47
2018-12-20T09:55:51.870Z,12.63
2018-12-20T09:58:24.462Z,9.60
2018-12-20T10:00:56.848Z,7.87
2018-12-20T10:03:36.468Z,7.33
2018-12-20T10:06:08.891Z,9.63
2018-12-20T10:08:41.303Z,6.80
2018-12-20T10:11:13.667Z,6.80
2018-12-20T10:13:46.241Z,7.30
2018-12-20T10:16:18.663Z,7.40
2018-12-20T10:18:51.018Z,4.90
2018-12-20T10:21:23.710Z,7.03
2018-12-20T10:23:56.508Z,5.50
2018-12-20T10:26:28.951Z,6.20
2018-12-20T10:29:01.475Z,4.93
2018-12-20T10:31:33.845Z,5.30
2018-12-20T10:34:06.182Z,5.33
2018-12-20T10:36:38.656Z,3.37
2018-12-20T10:39:11.014Z,5.10
2018-12-20T10:41:43.490Z,4.40
2018-12-20T10:44:15.946Z,4.27
2018-12-20T10:46:48.657Z,4.73
2018-12-20T10:49:21.048Z,4.50
2018-12-20T10:51:53.507Z,5.47
2018-12-20T10:54:25.940Z,8.07
2018-12-20T10:56:58.965Z,5.60
2018-12-20T10:59:31.515Z,4.10
2018-12-20T11:02:10.282Z,5.63
2018-12-20T11:04:48.671Z,4.53
2018-12-20T11:07:27.156Z,2.47
2018-12-20T11:10:05.802Z,3.97
2018-12-20T11:12:44.302Z,3.80
2018-12-20T11:15:16.808Z,4.17
2018-12-20T11:17:49.374Z,3.70
2018-12-20T11:20:21.803Z,3.07
2018-12-20T11:22:54.311Z,3.53
2018-12-20T11:25:26.816Z,3.87
2018-12-20T11:27:59.415Z,3.73
2018-12-20T11:30:31.931Z,4.00
2018-12-20T11:33:04.371Z,3.10
2018-12-20T11:35:36.872Z,3.80
2018-12-20T11:38:09.336Z,4.23
2018-12-20T11:40:41.820Z,3.47
2018-12-20T11:43:14.309Z,5.23
2018-12-20T11:45:46.592Z,2.90
2018-12-20T11:48:19.075Z,3.20
2018-12-20T11:50:51.462Z,2.77
2018-12-20T11:53:24.051Z,4.00
2018-12-20T11:55:56.590Z,3.53
2018-12-20T11:58:28.970Z,3.03
2018-12-20T12:01:01.858Z,2.17
2018-12-20T12:03:34.541Z,3.03
2018-12-20T12:06:07.268Z,2.27
2018-12-20T12:08:39.825Z,3.07
2018-12-20T12:11:12.236Z,2.67
2018-12-20T12:13:44.730Z,4.90
2018-12-20T12:16:17.173Z,3.17
2018-12-20T12:18:49.645Z,3.20
2018-12-20T12:21:22.050Z,2.10
2018-12-20T12:23:54.505Z,2.90
2018-12-20T12:26:26.920Z,2.63
2018-12-20T12:28:59.309Z,1.40
2018-12-20T12:31:31.709Z,2.50
2018-12-20T12:34:04.665Z,3.97
2018-12-20T12:36:37.304Z,2.07
2018-12-20T12:39:09.902Z,1.43
2018-12-20T12:41:42.471Z,3.03
2018-12-20T12:44:14.926Z,3.53
2018-12-20T12:46:47.310Z,1.80
2018-12-20T12:49:19.841Z,1.90
2018-12-20T12:51:53.044Z,1.37
2018-12-20T12:54:25.872Z,1.63
2018-12-20T12:56:58.402Z,1.80
2018-12-20T12:59:30.917Z,1.53
2018-12-20T13:02:03.539Z,1.20
2018-12-20T13:04:36.084Z,1.70
2018-12-20T13:07:08.379Z,1.17
2018-12-20T13:09:40.846Z,1.70
2018-12-20T13:12:13.270Z,1.30
2018-12-20T13:14:45.712Z,2.13
2018-12-20T13:17:18.111Z,2.00
2018-12-20T13:19:50.708Z,1.13
2018-12-20T13:22:23.154Z,1.83
2018-12-20T13:24:55.505Z,1.97
2018-12-20T13:27:27.924Z,2.53
2018-12-20T13:30:00.301Z,2.37
2018-12-20T13:32:32.742Z,0.70
2018-12-20T13:35:05.206Z,1.90
2018-12-20T13:37:37.746Z,1.07
2018-12-20T13:40:10.499Z,2.10
2018-12-20T13:42:43.124Z,2.30
2018-12-20T13:45:15.571Z,2.20
2018-12-20T13:47:47.973Z,1.40
2018-12-20T13:50:20.387Z,2.23
2018-12-20T13:52:59.800Z,1.17
2018-12-20T13:55:32.207Z,1.10
2018-12-20T13:58:04.690Z,1.83
2018-12-20T14:00:37.226Z,0.87
2018-12-20T14:03:10.411Z,1.70
2018-12-20T14:05:42.763Z,1.63
2018-12-20T14:08:15.226Z,3.30
2018-12-20T14:10:47.625Z,3.43
2018-12-20T14:13:20.189Z,1.33
2018-12-20T14:15:52.586Z,1.73
2018-12-20T14:18:30.855Z,0.70
2018-12-20T14:20:59.856Z,1.30
2018-12-20T14:23:32.391Z,2.17
2018-12-20T14:26:04.746Z,2.17
2018-12-20T14:28:38.027Z,3.27
2018-12-20T14:31:10.611Z,5.47
2018-12-20T14:33:42.970Z,1.50
2018-12-20T14:36:15.325Z,2.33
2018-12-20T14:38:47.774Z,2.57
2018-12-20T14:41:20.314Z,2.17
2018-12-20T14:43:52.932Z,1.77
2018-12-20T14:46:25.372Z,1.73
2018-12-20T14:48:57.726Z,1.53
2018-12-20T14:51:30.152Z,2.40
2018-12-20T14:54:02.759Z,2.00
2018-12-20T14:56:35.202Z,1.70
2018-12-20T14:59:07.585Z,2.20
2018-12-20T15:01:40.010Z,1.00
2018-12-20T15:04:12.379Z,2.53
2018-12-20T15:06:45.227Z,2.17
2018-12-20T15:09:17.655Z,1.80
2018-12-20T15:11:50.030Z,1.63
2018-12-20T15:14:22.431Z,4.43
2018-12-20T15:16:54.805Z,2.87
2018-12-20T15:19:27.414Z,1.57
2018-12-20T15:21:59.975Z,1.73
2018-12-20T15:24:32.524Z,1.70
2018-12-20T15:27:05.106Z,2.47
2018-12-20T15:29:37.699Z,2.77
2018-12-20T15:32:10.121Z,3.87
2018-12-20T15:34:42.664Z,2.00
2018-12-20T15:37:15.168Z,2.37
2018-12-20T15:39:47.654Z,1.20
2018-12-20T15:42:20.338Z,3.00
2018-12-20T15:44:52.758Z,1.67
2018-12-20T15:47:25.145Z,3.50
2018-12-20T15:49:57.669Z,3.17
2018-12-20T15:52:30.955Z,2.97
2018-12-20T15:55:04.167Z,1.73
2018-12-20T15:57:36.640Z,3.50
2018-12-20T16:00:09.293Z,2.00
2018-12-20T16:02:41.746Z,2.67
2018-12-20T16:05:14.378Z,2.93
2018-12-20T16:07:46.854Z,2.90
2018-12-20T16:10:19.759Z,2.40
2018-12-20T16:12:52.231Z,3.07
2018-12-20T16:15:24.596Z,2.20
2018-12-20T16:17:57.051Z,2.93
2018-12-20T16:20:29.445Z,2.53
2018-12-20T16:23:01.886Z,2.47
2018-12-20T16:25:34.301Z,2.17
2018-12-20T16:28:06.944Z,1.73
2018-12-20T16:30:39.394Z,1.63
2018-12-20T16:33:11.771Z,3.07
2018-12-20T16:35:44.198Z,1.83
2018-12-20T16:38:16.626Z,5.73
2018-12-20T16:40:49.014Z,3.83
2018-12-20T16:43:21.915Z,3.43
2018-12-20T16:45:54.704Z,3.63
2018-12-20T16:48:27.141Z,2.70
2018-12-20T16:50:59.615Z,2.10
2018-12-20T16:53:32.058Z,2.73
2018-12-20T16:56:04.730Z,3.77
2018-12-20T16:58:37.088Z,3.60
2018-12-20T17:01:09.524Z,3.43
2018-12-20T17:03:42.013Z,3.23
2018-12-20T17:06:14.464Z,3.20
2018-12-20T17:08:48.322Z,1.83
2018-12-20T17:11:21.216Z,3.57
2018-12-20T17:13:53.808Z,3.53
2018-12-20T17:16:26.230Z,1.90
2018-12-20T17:18:58.633Z,2.73
2018-12-20T17:21:31.159Z,3.53
2018-12-20T17:24:03.513Z,2.87
2018-12-20T17:26:36.092Z,2.73
2018-12-20T17:29:08.674Z,3.57
2018-12-20T17:31:41.181Z,3.67
2018-12-20T17:34:13.659Z,2.90
2018-12-20T17:36:46.303Z,3.37
2018-12-20T17:39:18.638Z,3.50
2018-12-20T17:41:51.227Z,4.80
2018-12-20T17:44:23.835Z,4.80
2018-12-20T17:46:56.248Z,1.97
2018-12-20T17:49:30.643Z,3.80
2018-12-20T17:52:03.198Z,3.23
2018-12-20T17:54:35.545Z,2.63
2018-12-20T17:57:07.897Z,3.50
2018-12-20T17:59:40.353Z,3.20
2018-12-20T18:02:12.998Z,3.73
2018-12-20T18:04:45.453Z,3.50
2018-12-20T18:07:17.884Z,2.80
2018-12-20T18:09:50.298Z,4.63
2018-12-20T18:12:22.753Z,2.40
2018-12-20T18:14:55.353Z,2.60
2018-12-20T18:17:28.001Z,1.90
2018-12-20T18:20:00.557Z,2.83
2018-12-20T18:22:33.166Z,3.17
2018-12-20T18:25:05.613Z,3.47
2018-12-20T18:27:38.245Z,3.80
2018-12-20T18:30:10.773Z,2.03
2018-12-20T18:32:43.303Z,2.60
2018-12-20T18:35:16.032Z,3.47
2018-12-20T18:37:48.460Z,3.13
2018-12-20T18:40:20.888Z,5.17
2018-12-20T18:42:53.278Z,2.87
2018-12-20T18:45:25.803Z,3.63
2018-12-20T18:48:05.280Z,4.23
2018-12-20T18:50:37.639Z,2.63
2018-12-20T18:53:10.073Z,2.23
2018-12-20T18:55:49.582Z,2.57
2018-12-20T18:58:22.202Z,2.67
2018-12-20T19:00:54.553Z,2.87
2018-12-20T19:03:26.973Z,3.43
2018-12-20T19:05:59.340Z,3.03
2018-12-20T19:08:31.745Z,1.90
2018-12-20T19:11:04.493Z,2.93
2018-12-20T19:13:37.008Z,2.20
2018-12-20T19:16:09.741Z,1.67
2018-12-20T19:18:42.322Z,3.37
2018-12-20T19:21:15.010Z,2.47
2018-12-20T19:23:47.389Z,2.87
2018-12-20T19:26:19.937Z,2.37
2018-12-20T19:28:52.497Z,3.80
2018-12-20T19:31:24.885Z,2.23
2018-12-20T19:33:57.278Z,3.50
2018-12-20T19:36:29.752Z,10.00
2018-12-20T19:39:06.040Z,2.13
2018-12-20T19:41:38.608Z,2.67
2018-12-20T19:44:11.284Z,2.57
2018-12-20T19:46:43.886Z,2.17
2018-12-20T19:49:16.415Z,2.57
2018-12-20T19:51:48.862Z,2.83
2018-12-20T19:54:21.328Z,3.60
2018-12-20T19:56:53.747Z,2.10
2018-12-20T19:59:26.078Z,2.03
2018-12-20T20:02:04.553Z,2.70
2018-12-20T20:04:33.293Z,2.10
2018-12-20T20:07:05.644Z,2.90
2018-12-20T20:09:37.988Z,3.03
2018-12-20T20:12:10.532Z,2.80
2018-12-20T20:14:43.196Z,2.87
2018-12-20T20:17:15.634Z,3.80
2018-12-20T20:19:48.290Z,2.10
2018-12-20T20:22:25.877Z,2.80
2018-12-20T20:24:58.389Z,3.27
2018-12-20T20:27:31.048Z,2.20
2018-12-20T20:30:07.571Z,1.87
2018-12-20T20:32:40.034Z,4.87
2018-12-20T20:35:12.441Z,3.00
2018-12-20T20:37:44.859Z,12.23
2018-12-20T20:40:17.314Z,5.33
2018-12-20T20:42:49.839Z,4.20
2018-12-20T20:45:22.427Z,3.40
2018-12-20T20:47:55.195Z,3.47
2018-12-20T20:50:27.990Z,1.80
2018-12-20T20:53:00.695Z,3.17
2018-12-20T20:55:33.328Z,2.97
2018-12-20T20:58:05.729Z,2.37
2018-12-20T21:00:38.695Z,3.33
2018-12-20T21:03:11.396Z,2.13
2018-12-20T21:05:44.139Z,3.97
2018-12-20T21:08:23.638Z,1.87
2018-12-20T21:10:56.301Z,5.43
2018-12-20T21:13:28.825Z,3.63
2018-12-20T21:16:01.460Z,2.83
2018-12-20T21:18:33.930Z,2.13
2018-12-20T21:21:06.330Z,4.70
2018-12-20T21:23:38.795Z,2.40
2018-12-20T21:26:11.289Z,2.90
2018-12-20T21:28:43.772Z,2.37
2018-12-20T21:31:16.260Z,2.03
2018-12-20T21:33:48.907Z,2.30
2018-12-20T21:36:21.685Z,2.53
2018-12-20T21:38:55.187Z,1.83
2018-12-20T21:41:27.614Z,2.63
2018-12-20T21:43:59.994Z,2.60
2018-12-20T21:46:33.294Z,3.27
2018-12-20T21:49:06.419Z,3.10
2018-12-20T21:51:39.073Z,2.33
2018-12-20T21:54:11.577Z,2.27
2018-12-20T21:56:44.103Z,2.87
2018-12-20T21:59:16.566Z,1.43
2018-12-20T22:01:49.348Z,2.60
2018-12-20T22:04:22.015Z,3.63
2018-12-20T22:06:54.455Z,3.17
2018-12-20T22:09:26.789Z,2.13
2018-12-20T22:11:59.291Z,2.43
2018-12-20T22:14:31.798Z,2.50
2018-12-20T22:17:04.235Z,2.47
2018-12-20T22:19:36.605Z,1.70
2018-12-20T22:22:09.276Z,2.60
2018-12-20T22:24:41.799Z,3.33
2018-12-20T22:27:14.149Z,2.87
2018-12-20T22:29:46.724Z,3.43
2018-12-20T22:32:19.174Z,4.13
2018-12-20T22:34:51.649Z,2.57
2018-12-20T22:37:24.073Z,2.60
2018-12-20T22:39:56.583Z,3.37
2018-12-20T22:42:29.340Z,2.20
2018-12-20T22:45:01.835Z,3.33
2018-12-20T22:47:34.398Z,4.33
2018-12-20T22:50:07.558Z,2.03
2018-12-20T22:52:40.055Z,2.67
2018-12-20T22:55:12.658Z,2.67
2018-12-20T22:57:45.624Z,2.87
2018-12-20T23:00:18.629Z,2.30
2018-12-20T23:02:51.094Z,4.97
2018-12-20T23:05:23.638Z,2.33
2018-12-20T23:07:55.934Z,1.70
2018-12-20T23:10:28.583Z,1.67
2018-12-20T23:13:00.976Z,2.53
2018-12-20T23:15:33.406Z,2.50
2018-12-20T23:18:05.897Z,3.10
2018-12-20T23:20:38.358Z,4.37
2018-12-20T23:23:10.955Z,2.13
2018-12-20T23:25:43.474Z,3.73
2018-12-20T23:28:15.878Z,2.93
2018-12-20T23:30:48.948Z,3.20
2018-12-20T23:33:21.747Z,2.77
2018-12-20T23:35:54.134Z,2.70
2018-12-20T23:38:26.578Z,2.63
2018-12-20T23:40:59.210Z,4.20
2018-12-20T23:43:31.793Z,2.80
2018-12-20T23:46:04.562Z,2.60
2018-12-20T23:48:36.914Z,3.97
2018-12-20T23:51:13.590Z,2.00
2018-12-20T23:53:43.888Z,3.30
2018-12-20T23:56:16.235Z,2.60
2018-12-20T23:58:49.182Z,6.07
